sensor_id;sensor_type;location;lat;lon;timestamp;temperature;humidity
24224;DHT22;12359;49.716;9.212;2022-11-03T00:01:36;5.60;91.00
24224;DHT22;12359;49.716;9.212;2022-11-03T00:04:03;5.60;91.50
24224;DHT22;12359;49.716;9.212;2022-11-03T00:06:29;5.60;91.70
24224;DHT22;12359;49.716;9.212;2022-11-03T00:08:59;5.60;91.90
24224;DHT22;12359;49.716;9.212;2022-11-03T00:11:25;5.60;91.90
24224;DHT22;12359;49.716;9.212;2022-11-03T00:13:51;5.50;92.40
24224;DHT22;12359;49.716;9.212;2022-11-03T00:16:17;5.60;92.00
24224;DHT22;12359;49.716;9.212;2022-11-03T00:18:43;5.60;91.80
24224;DHT22;12359;49.716;9.212;2022-11-03T00:21:11;5.60;91.30
24224;DHT22;12359;49.716;9.212;2022-11-03T00:23:39;5.60;89.70
24224;DHT22;12359;49.716;9.212;2022-11-03T00:26:19;5.60;90.30
24224;DHT22;12359;49.716;9.212;2022-11-03T00:28:55;5.60;90.10
24224;DHT22;12359;49.716;9.212;2022-11-03T00:31:26;5.60;89.90
24224;DHT22;12359;49.716;9.212;2022-11-03T00:33:53;5.50;89.20
24224;DHT22;12359;49.716;9.212;2022-11-03T00:36:24;5.50;90.50
24224;DHT22;12359;49.716;9.212;2022-11-03T00:38:50;5.60;91.00
24224;DHT22;12359;49.716;9.212;2022-11-03T00:41:17;5.50;90.80
24224;DHT22;12359;49.716;9.212;2022-11-03T00:43:45;5.60;91.10
24224;DHT22;12359;49.716;9.212;2022-11-03T00:46:11;5.60;90.40
24224;DHT22;12359;49.716;9.212;2022-11-03T00:48:37;5.50;90.00
24224;DHT22;12359;49.716;9.212;2022-11-03T00:51:09;5.50;90.40
24224;DHT22;12359;49.716;9.212;2022-11-03T00:56:08;5.40;90.10
24224;DHT22;12359;49.716;9.212;2022-11-03T00:58:34;5.50;90.60
24224;DHT22;12359;49.716;9.212;2022-11-03T01:01:06;5.50;90.30
24224;DHT22;12359;49.716;9.212;2022-11-03T01:03:34;5.40;90.90
24224;DHT22;12359;49.716;9.212;2022-11-03T01:06:00;5.50;89.50
24224;DHT22;12359;49.716;9.212;2022-11-03T01:08:45;5.50;90.40
24224;DHT22;12359;49.716;9.212;2022-11-03T01:11:16;5.40;90.40
24224;DHT22;12359;49.716;9.212;2022-11-03T01:14:00;5.40;90.20
24224;DHT22;12359;49.716;9.212;2022-11-03T01:16:27;5.40;90.60
24224;DHT22;12359;49.716;9.212;2022-11-03T01:18:53;5.40;91.20
24224;DHT22;12359;49.716;9.212;2022-11-03T01:21:19;5.40;91.10
24224;DHT22;12359;49.716;9.212;2022-11-03T01:23:45;5.40;90.90
24224;DHT22;12359;49.716;9.212;2022-11-03T01:26:12;5.30;90.60
24224;DHT22;12359;49.716;9.212;2022-11-03T01:28:40;5.40;91.10
24224;DHT22;12359;49.716;9.212;2022-11-03T01:31:09;5.30;90.80
24224;DHT22;12359;49.716;9.212;2022-11-03T01:33:35;5.30;90.80
24224;DHT22;12359;49.716;9.212;2022-11-03T01:36:00;5.30;89.80
24224;DHT22;12359;49.716;9.212;2022-11-03T01:38:27;5.20;91.30
24224;DHT22;12359;49.716;9.212;2022-11-03T01:40:55;5.30;92.50
24224;DHT22;12359;49.716;9.212;2022-11-03T01:43:22;5.30;91.50
24224;DHT22;12359;49.716;9.212;2022-11-03T01:45:52;5.30;90.50
24224;DHT22;12359;49.716;9.212;2022-11-03T01:48:23;5.30;88.70
24224;DHT22;12359;49.716;9.212;2022-11-03T01:50:49;5.30;90.20
24224;DHT22;12359;49.716;9.212;2022-11-03T01:53:15;5.30;91.00
24224;DHT22;12359;49.716;9.212;2022-11-03T01:55:42;5.30;92.00
24224;DHT22;12359;49.716;9.212;2022-11-03T01:58:09;5.30;92.40
24224;DHT22;12359;49.716;9.212;2022-11-03T02:00:36;5.20;90.50
24224;DHT22;12359;49.716;9.212;2022-11-03T02:03:03;5.20;91.10
24224;DHT22;12359;49.716;9.212;2022-11-03T02:05:30;5.20;90.70
24224;DHT22;12359;49.716;9.212;2022-11-03T02:08:05;5.20;91.40
24224;DHT22;12359;49.716;9.212;2022-11-03T02:10:33;5.20;90.50
24224;DHT22;12359;49.716;9.212;2022-11-03T02:13:01;5.20;90.90
24224;DHT22;12359;49.716;9.212;2022-11-03T02:15:29;5.10;91.50
24224;DHT22;12359;49.716;9.212;2022-11-03T02:17:56;5.20;92.70
24224;DHT22;12359;49.716;9.212;2022-11-03T02:20:25;5.10;91.60
24224;DHT22;12359;49.716;9.212;2022-11-03T02:25:43;5.00;91.50
24224;DHT22;12359;49.716;9.212;2022-11-03T02:28:10;5.00;91.00
24224;DHT22;12359;49.716;9.212;2022-11-03T02:30:56;5.00;91.30
24224;DHT22;12359;49.716;9.212;2022-11-03T02:33:30;4.90;90.00
24224;DHT22;12359;49.716;9.212;2022-11-03T02:38:27;4.80;90.30
24224;DHT22;12359;49.716;9.212;2022-11-03T02:40:58;4.80;90.30
24224;DHT22;12359;49.716;9.212;2022-11-03T02:43:27;4.70;90.00
24224;DHT22;12359;49.716;9.212;2022-11-03T02:45:54;4.70;90.90
24224;DHT22;12359;49.716;9.212;2022-11-03T02:48:20;4.70;91.80
24224;DHT22;12359;49.716;9.212;2022-11-03T02:50:47;4.70;92.20
24224;DHT22;12359;49.716;9.212;2022-11-03T02:53:15;4.70;92.20
24224;DHT22;12359;49.716;9.212;2022-11-03T03:00:48;4.70;91.60
24224;DHT22;12359;49.716;9.212;2022-11-03T03:03:37;4.60;92.00
24224;DHT22;12359;49.716;9.212;2022-11-03T03:06:11;4.60;92.70
24224;DHT22;12359;49.716;9.212;2022-11-03T03:08:43;4.60;92.70
24224;DHT22;12359;49.716;9.212;2022-11-03T03:11:11;4.60;92.70
24224;DHT22;12359;49.716;9.212;2022-11-03T03:13:40;4.60;92.60
24224;DHT22;12359;49.716;9.212;2022-11-03T03:16:22;4.60;92.10
24224;DHT22;12359;49.716;9.212;2022-11-03T03:21:43;4.60;93.50
24224;DHT22;12359;49.716;9.212;2022-11-03T03:24:28;4.70;95.50
24224;DHT22;12359;49.716;9.212;2022-11-03T03:26:57;4.70;96.00
24224;DHT22;12359;49.716;9.212;2022-11-03T03:29:29;4.70;95.40
24224;DHT22;12359;49.716;9.212;2022-11-03T03:31:58;4.80;94.90
24224;DHT22;12359;49.716;9.212;2022-11-03T03:34:26;4.80;94.10
24224;DHT22;12359;49.716;9.212;2022-11-03T03:36:54;4.70;93.30
24224;DHT22;12359;49.716;9.212;2022-11-03T03:39:22;4.70;93.00
24224;DHT22;12359;49.716;9.212;2022-11-03T03:41:51;4.70;92.20
24224;DHT22;12359;49.716;9.212;2022-11-03T03:44:19;4.60;92.40
24224;DHT22;12359;49.716;9.212;2022-11-03T03:46:50;4.70;93.90
24224;DHT22;12359;49.716;9.212;2022-11-03T03:49:17;4.70;94.70
24224;DHT22;12359;49.716;9.212;2022-11-03T03:51:43;4.70;95.20
24224;DHT22;12359;49.716;9.212;2022-11-03T03:54:10;4.70;94.20
24224;DHT22;12359;49.716;9.212;2022-11-03T03:59:10;4.70;92.80
24224;DHT22;12359;49.716;9.212;2022-11-03T04:01:36;4.70;93.30
24224;DHT22;12359;49.716;9.212;2022-11-03T04:04:01;4.70;93.20
24224;DHT22;12359;49.716;9.212;2022-11-03T04:06:27;4.60;92.50
24224;DHT22;12359;49.716;9.212;2022-11-03T04:08:52;4.60;92.40
24224;DHT22;12359;49.716;9.212;2022-11-03T04:11:18;4.50;92.10
24224;DHT22;12359;49.716;9.212;2022-11-03T04:14:02;4.50;92.10
24224;DHT22;12359;49.716;9.212;2022-11-03T04:16:47;4.40;91.90
24224;DHT22;12359;49.716;9.212;2022-11-03T04:19:31;4.40;92.50
24224;DHT22;12359;49.716;9.212;2022-11-03T04:22:15;4.40;94.20
24224;DHT22;12359;49.716;9.212;2022-11-03T04:24:44;4.40;95.30
24224;DHT22;12359;49.716;9.212;2022-11-03T04:29:47;4.40;95.40
24224;DHT22;12359;49.716;9.212;2022-11-03T04:32:15;4.50;95.90
24224;DHT22;12359;49.716;9.212;2022-11-03T04:34:41;4.50;97.30
24224;DHT22;12359;49.716;9.212;2022-11-03T04:37:14;4.50;97.50
24224;DHT22;12359;49.716;9.212;2022-11-03T04:39:40;4.40;96.70
24224;DHT22;12359;49.716;9.212;2022-11-03T04:42:20;4.40;96.50
24224;DHT22;12359;49.716;9.212;2022-11-03T04:44:46;4.50;97.30
24224;DHT22;12359;49.716;9.212;2022-11-03T04:47:15;4.50;97.10
24224;DHT22;12359;49.716;9.212;2022-11-03T04:49:41;4.50;96.70
24224;DHT22;12359;49.716;9.212;2022-11-03T04:52:21;4.40;95.90
24224;DHT22;12359;49.716;9.212;2022-11-03T04:54:48;4.50;95.90
24224;DHT22;12359;49.716;9.212;2022-11-03T04:57:16;4.40;93.90
24224;DHT22;12359;49.716;9.212;2022-11-03T04:59:44;4.40;93.40
24224;DHT22;12359;49.716;9.212;2022-11-03T05:02:17;4.30;93.00
24224;DHT22;12359;49.716;9.212;2022-11-03T05:04:44;4.40;93.60
24224;DHT22;12359;49.716;9.212;2022-11-03T05:07:24;4.40;94.40
24224;DHT22;12359;49.716;9.212;2022-11-03T05:09:53;4.50;94.30
24224;DHT22;12359;49.716;9.212;2022-11-03T05:12:19;4.50;93.80
24224;DHT22;12359;49.716;9.212;2022-11-03T05:14:45;4.40;93.20
24224;DHT22;12359;49.716;9.212;2022-11-03T05:19:50;4.50;92.40
24224;DHT22;12359;49.716;9.212;2022-11-03T05:22:20;4.50;92.80
24224;DHT22;12359;49.716;9.212;2022-11-03T05:24:48;4.50;92.60
24224;DHT22;12359;49.716;9.212;2022-11-03T05:27:19;4.50;92.00
24224;DHT22;12359;49.716;9.212;2022-11-03T05:29:46;4.50;92.50
24224;DHT22;12359;49.716;9.212;2022-11-03T05:32:23;4.60;92.60
24224;DHT22;12359;49.716;9.212;2022-11-03T05:34:54;4.50;92.50
24224;DHT22;12359;49.716;9.212;2022-11-03T05:37:32;4.50;92.70
24224;DHT22;12359;49.716;9.212;2022-11-03T05:40:03;4.60;93.60
24224;DHT22;12359;49.716;9.212;2022-11-03T05:42:41;4.60;94.20
24224;DHT22;12359;49.716;9.212;2022-11-03T05:45:24;4.60;94.20
24224;DHT22;12359;49.716;9.212;2022-11-03T05:47:53;4.70;94.00
24224;DHT22;12359;49.716;9.212;2022-11-03T05:50:24;4.70;93.60
24224;DHT22;12359;49.716;9.212;2022-11-03T05:52:57;4.70;93.20
24224;DHT22;12359;49.716;9.212;2022-11-03T05:55:30;4.70;94.20
24224;DHT22;12359;49.716;9.212;2022-11-03T05:58:00;4.70;95.10
24224;DHT22;12359;49.716;9.212;2022-11-03T06:00:35;4.70;94.20
24224;DHT22;12359;49.716;9.212;2022-11-03T06:03:02;4.60;93.10
24224;DHT22;12359;49.716;9.212;2022-11-03T06:05:30;4.60;92.70
24224;DHT22;12359;49.716;9.212;2022-11-03T06:08:00;4.60;92.80
24224;DHT22;12359;49.716;9.212;2022-11-03T06:10:31;4.50;91.90
24224;DHT22;12359;49.716;9.212;2022-11-03T06:13:02;4.50;93.00
24224;DHT22;12359;49.716;9.212;2022-11-03T06:15:33;4.50;93.60
24224;DHT22;12359;49.716;9.212;2022-11-03T06:18:01;4.50;94.50
24224;DHT22;12359;49.716;9.212;2022-11-03T06:20:35;4.50;94.50
24224;DHT22;12359;49.716;9.212;2022-11-03T06:23:01;4.50;95.50
24224;DHT22;12359;49.716;9.212;2022-11-03T06:25:32;4.50;95.00
24224;DHT22;12359;49.716;9.212;2022-11-03T06:28:02;4.60;95.80
24224;DHT22;12359;49.716;9.212;2022-11-03T06:30:39;4.60;96.00
24224;DHT22;12359;49.716;9.212;2022-11-03T06:33:27;4.70;96.70
24224;DHT22;12359;49.716;9.212;2022-11-03T06:35:59;4.70;96.40
24224;DHT22;12359;49.716;9.212;2022-11-03T06:38:27;4.80;96.70
24224;DHT22;12359;49.716;9.212;2022-11-03T06:40:54;4.80;95.10
24224;DHT22;12359;49.716;9.212;2022-11-03T06:46:08;4.70;92.10
24224;DHT22;12359;49.716;9.212;2022-11-03T06:48:38;4.70;92.50
24224;DHT22;12359;49.716;9.212;2022-11-03T06:51:23;4.70;91.30
24224;DHT22;12359;49.716;9.212;2022-11-03T06:53:52;4.50;91.10
24224;DHT22;12359;49.716;9.212;2022-11-03T06:56:20;4.60;92.70
24224;DHT22;12359;49.716;9.212;2022-11-03T06:58:47;4.60;94.20
24224;DHT22;12359;49.716;9.212;2022-11-03T07:01:22;4.60;95.90
24224;DHT22;12359;49.716;9.212;2022-11-03T07:03:50;4.60;96.40
24224;DHT22;12359;49.716;9.212;2022-11-03T07:06:20;4.70;96.90
24224;DHT22;12359;49.716;9.212;2022-11-03T07:08:59;4.80;97.50
24224;DHT22;12359;49.716;9.212;2022-11-03T07:11:27;4.90;96.60
24224;DHT22;12359;49.716;9.212;2022-11-03T07:14:02;5.00;95.50
24224;DHT22;12359;49.716;9.212;2022-11-03T07:16:45;5.00;94.10
24224;DHT22;12359;49.716;9.212;2022-11-03T07:19:28;4.90;92.80
24224;DHT22;12359;49.716;9.212;2022-11-03T07:21:58;4.80;90.90
24224;DHT22;12359;49.716;9.212;2022-11-03T07:24:27;4.80;92.40
24224;DHT22;12359;49.716;9.212;2022-11-03T07:27:19;4.80;91.80
24224;DHT22;12359;49.716;9.212;2022-11-03T07:29:47;4.80;92.70
24224;DHT22;12359;49.716;9.212;2022-11-03T07:32:21;4.90;93.40
24224;DHT22;12359;49.716;9.212;2022-11-03T07:34:48;5.10;94.10
24224;DHT22;12359;49.716;9.212;2022-11-03T07:37:22;5.10;93.70
24224;DHT22;12359;49.716;9.212;2022-11-03T07:39:49;5.20;91.80
24224;DHT22;12359;49.716;9.212;2022-11-03T07:42:22;5.30;90.20
24224;DHT22;12359;49.716;9.212;2022-11-03T07:44:49;5.30;88.50
24224;DHT22;12359;49.716;9.212;2022-11-03T07:47:18;5.30;89.00
24224;DHT22;12359;49.716;9.212;2022-11-03T07:49:44;5.40;89.50
24224;DHT22;12359;49.716;9.212;2022-11-03T07:52:20;5.50;88.80
24224;DHT22;12359;49.716;9.212;2022-11-03T07:54:47;5.60;87.70
24224;DHT22;12359;49.716;9.212;2022-11-03T07:57:28;5.60;86.30
24224;DHT22;12359;49.716;9.212;2022-11-03T08:00:08;5.70;85.40
24224;DHT22;12359;49.716;9.212;2022-11-03T08:02:53;5.80;83.20
24224;DHT22;12359;49.716;9.212;2022-11-03T08:05:20;5.90;82.40
24224;DHT22;12359;49.716;9.212;2022-11-03T08:07:46;6.10;83.20
24224;DHT22;12359;49.716;9.212;2022-11-03T08:10:12;6.30;78.40
24224;DHT22;12359;49.716;9.212;2022-11-03T08:12:38;6.50;68.90
24224;DHT22;12359;49.716;9.212;2022-11-03T08:15:04;6.50;62.10
24224;DHT22;12359;49.716;9.212;2022-11-03T08:17:30;6.60;57.80
24224;DHT22;12359;49.716;9.212;2022-11-03T08:19:55;6.90;61.10
24224;DHT22;12359;49.716;9.212;2022-11-03T08:22:21;6.90;45.80
24224;DHT22;12359;49.716;9.212;2022-11-03T08:24:50;7.30;46.10
24224;DHT22;12359;49.716;9.212;2022-11-03T08:27:16;7.60;35.90
24224;DHT22;12359;49.716;9.212;2022-11-03T08:29:41;7.90;13.80
24224;DHT22;12359;49.716;9.212;2022-11-03T08:32:07;7.90;1.00
24224;DHT22;12359;49.716;9.212;2022-11-03T08:34:33;7.90;1.00
24224;DHT22;12359;49.716;9.212;2022-11-03T08:36:58;8.10;1.00
24224;DHT22;12359;49.716;9.212;2022-11-03T08:39:24;8.00;1.00
24224;DHT22;12359;49.716;9.212;2022-11-03T08:41:49;8.20;1.00
24224;DHT22;12359;49.716;9.212;2022-11-03T08:44:15;8.40;1.00
24224;DHT22;12359;49.716;9.212;2022-11-03T08:46:41;8.60;1.00
24224;DHT22;12359;49.716;9.212;2022-11-03T08:49:07;8.70;1.00
24224;DHT22;12359;49.716;9.212;2022-11-03T08:51:32;8.70;1.00
24224;DHT22;12359;49.716;9.212;2022-11-03T08:53:58;9.00;1.00
24224;DHT22;12359;49.716;9.212;2022-11-03T08:56:23;9.20;1.00
24224;DHT22;12359;49.716;9.212;2022-11-03T08:58:49;9.40;1.00
24224;DHT22;12359;49.716;9.212;2022-11-03T09:01:15;9.40;99.90
24224;DHT22;12359;49.716;9.212;2022-11-03T09:03:41;9.80;99.90
24224;DHT22;12359;49.716;9.212;2022-11-03T09:06:07;9.90;99.90
24224;DHT22;12359;49.716;9.212;2022-11-03T09:08:32;10.20;99.90
24224;DHT22;12359;49.716;9.212;2022-11-03T09:10:58;10.60;99.90
24224;DHT22;12359;49.716;9.212;2022-11-03T09:13:24;11.10;99.90
24224;DHT22;12359;49.716;9.212;2022-11-03T09:15:49;11.20;99.90
24224;DHT22;12359;49.716;9.212;2022-11-03T09:18:16;11.40;1.00
24224;DHT22;12359;49.716;9.212;2022-11-03T09:20:42;11.60;1.00
24224;DHT22;12359;49.716;9.212;2022-11-03T09:23:08;12.10;1.00
24224;DHT22;12359;49.716;9.212;2022-11-03T09:25:33;12.60;1.00
24224;DHT22;12359;49.716;9.212;2022-11-03T09:27:59;12.90;99.90
24224;DHT22;12359;49.716;9.212;2022-11-03T09:30:24;12.90;99.90
24224;DHT22;12359;49.716;9.212;2022-11-03T09:32:50;12.90;1.00
24224;DHT22;12359;49.716;9.212;2022-11-03T09:35:16;12.80;99.90
24224;DHT22;12359;49.716;9.212;2022-11-03T09:37:42;12.50;99.90
24224;DHT22;12359;49.716;9.212;2022-11-03T09:40:09;12.20;99.90
24224;DHT22;12359;49.716;9.212;2022-11-03T09:42:36;12.00;1.00
24224;DHT22;12359;49.716;9.212;2022-11-03T09:45:03;11.80;99.90
24224;DHT22;12359;49.716;9.212;2022-11-03T09:47:37;11.40;1.00
24224;DHT22;12359;49.716;9.212;2022-11-03T09:50:04;11.40;99.90
24224;DHT22;12359;49.716;9.212;2022-11-03T09:52:30;11.60;99.90
24224;DHT22;12359;49.716;9.212;2022-11-03T09:54:56;11.60;99.90
24224;DHT22;12359;49.716;9.212;2022-11-03T09:57:25;11.60;93.90
24224;DHT22;12359;49.716;9.212;2022-11-03T09:59:52;11.30;1.00
24224;DHT22;12359;49.716;9.212;2022-11-03T10:04:47;10.60;99.90
24224;DHT22;12359;49.716;9.212;2022-11-03T10:07:13;10.60;99.90
24224;DHT22;12359;49.716;9.212;2022-11-03T10:09:42;10.50;99.90
24224;DHT22;12359;49.716;9.212;2022-11-03T10:12:10;10.40;1.00
24224;DHT22;12359;49.716;9.212;2022-11-03T10:14:36;10.30;1.00
24224;DHT22;12359;49.716;9.212;2022-11-03T10:17:01;10.30;1.00
24224;DHT22;12359;49.716;9.212;2022-11-03T10:19:27;10.30;1.00
24224;DHT22;12359;49.716;9.212;2022-11-03T10:21:53;10.30;1.00
24224;DHT22;12359;49.716;9.212;2022-11-03T10:24:19;10.30;1.00
24224;DHT22;12359;49.716;9.212;2022-11-03T10:26:50;10.20;1.00
24224;DHT22;12359;49.716;9.212;2022-11-03T10:29:22;10.20;1.00
24224;DHT22;12359;49.716;9.212;2022-11-03T10:31:50;10.20;1.00
24224;DHT22;12359;49.716;9.212;2022-11-03T10:39:38;10.20;1.00
24224;DHT22;12359;49.716;9.212;2022-11-03T10:42:04;10.10;1.00
24224;DHT22;12359;49.716;9.212;2022-11-03T10:44:30;10.20;1.00
24224;DHT22;12359;49.716;9.212;2022-11-03T10:47:01;10.10;1.00
24224;DHT22;12359;49.716;9.212;2022-11-03T10:49:31;10.10;1.00
24224;DHT22;12359;49.716;9.212;2022-11-03T10:52:18;10.10;1.00
24224;DHT22;12359;49.716;9.212;2022-11-03T10:54:45;10.30;1.00
24224;DHT22;12359;49.716;9.212;2022-11-03T10:57:12;10.50;1.00
24224;DHT22;12359;49.716;9.212;2022-11-03T10:59:38;10.70;1.00
24224;DHT22;12359;49.716;9.212;2022-11-03T11:02:24;10.90;1.00
24224;DHT22;12359;49.716;9.212;2022-11-03T11:04:58;11.00;1.00
24224;DHT22;12359;49.716;9.212;2022-11-03T11:07:32;11.00;1.00
24224;DHT22;12359;49.716;9.212;2022-11-03T11:15:42;11.30;99.90
24224;DHT22;12359;49.716;9.212;2022-11-03T11:18:08;11.30;1.00
24224;DHT22;12359;49.716;9.212;2022-11-03T11:20:36;11.30;1.00
24224;DHT22;12359;49.716;9.212;2022-11-03T11:28:30;11.30;1.00
24224;DHT22;12359;49.716;9.212;2022-11-03T11:30:56;11.20;1.00
24224;DHT22;12359;49.716;9.212;2022-11-03T11:33:23;11.10;1.00
24224;DHT22;12359;49.716;9.212;2022-11-03T11:38:43;11.00;1.00
24224;DHT22;12359;49.716;9.212;2022-11-03T11:41:09;10.90;1.00
24224;DHT22;12359;49.716;9.212;2022-11-03T11:43:35;10.90;1.00
24224;DHT22;12359;49.716;9.212;2022-11-03T11:51:34;10.80;1.00
24224;DHT22;12359;49.716;9.212;2022-11-03T11:54:04;10.80;1.00
24224;DHT22;12359;49.716;9.212;2022-11-03T11:56:31;10.90;1.00
24224;DHT22;12359;49.716;9.212;2022-11-03T11:58:57;11.00;1.00
24224;DHT22;12359;49.716;9.212;2022-11-03T12:01:33;11.10;1.00
24224;DHT22;12359;49.716;9.212;2022-11-03T12:04:07;11.10;1.00
24224;DHT22;12359;49.716;9.212;2022-11-03T12:06:35;11.20;1.00
24224;DHT22;12359;49.716;9.212;2022-11-03T12:11:53;11.20;1.00
24224;DHT22;12359;49.716;9.212;2022-11-03T12:14:38;11.20;1.00
24224;DHT22;12359;49.716;9.212;2022-11-03T12:19:46;11.20;1.00
24224;DHT22;12359;49.716;9.212;2022-11-03T12:24:57;11.30;1.00
24224;DHT22;12359;49.716;9.212;2022-11-03T12:29:52;11.30;1.00
24224;DHT22;12359;49.716;9.212;2022-11-03T12:32:19;11.40;1.00
24224;DHT22;12359;49.716;9.212;2022-11-03T12:34:45;11.40;1.00
24224;DHT22;12359;49.716;9.212;2022-11-03T12:37:11;11.40;1.00
24224;DHT22;12359;49.716;9.212;2022-11-03T12:39:37;11.40;1.00
24224;DHT22;12359;49.716;9.212;2022-11-03T12:42:03;11.40;1.00
24224;DHT22;12359;49.716;9.212;2022-11-03T12:44:29;11.30;1.00
24224;DHT22;12359;49.716;9.212;2022-11-03T12:46:55;11.40;1.00
24224;DHT22;12359;49.716;9.212;2022-11-03T12:49:21;11.40;1.00
24224;DHT22;12359;49.716;9.212;2022-11-03T12:51:46;11.40;1.00
24224;DHT22;12359;49.716;9.212;2022-11-03T12:54:12;11.40;1.00
24224;DHT22;12359;49.716;9.212;2022-11-03T12:56:37;11.40;1.00
24224;DHT22;12359;49.716;9.212;2022-11-03T12:59:03;11.40;1.00
24224;DHT22;12359;49.716;9.212;2022-11-03T13:01:29;11.40;1.00
24224;DHT22;12359;49.716;9.212;2022-11-03T13:03:55;11.40;1.00
24224;DHT22;12359;49.716;9.212;2022-11-03T13:06:20;11.40;1.00
24224;DHT22;12359;49.716;9.212;2022-11-03T13:08:46;11.40;1.00
24224;DHT22;12359;49.716;9.212;2022-11-03T13:11:13;11.40;1.00
24224;DHT22;12359;49.716;9.212;2022-11-03T13:13:58;11.40;1.00
24224;DHT22;12359;49.716;9.212;2022-11-03T13:16:23;11.40;1.00
24224;DHT22;12359;49.716;9.212;2022-11-03T13:18:49;11.40;1.00
24224;DHT22;12359;49.716;9.212;2022-11-03T13:21:15;11.40;1.00
24224;DHT22;12359;49.716;9.212;2022-11-03T13:23:41;11.50;1.00
24224;DHT22;12359;49.716;9.212;2022-11-03T13:26:06;11.50;1.00
24224;DHT22;12359;49.716;9.212;2022-11-03T13:28:32;11.60;1.00
24224;DHT22;12359;49.716;9.212;2022-11-03T13:30:58;11.60;1.00
24224;DHT22;12359;49.716;9.212;2022-11-03T13:33:23;11.70;1.00
24224;DHT22;12359;49.716;9.212;2022-11-03T13:35:49;11.70;1.00
24224;DHT22;12359;49.716;9.212;2022-11-03T13:38:15;11.70;1.00
24224;DHT22;12359;49.716;9.212;2022-11-03T13:40:40;11.80;1.00
24224;DHT22;12359;49.716;9.212;2022-11-03T13:43:06;11.80;1.00
24224;DHT22;12359;49.716;9.212;2022-11-03T13:45:32;11.80;1.00
24224;DHT22;12359;49.716;9.212;2022-11-03T13:47:57;11.70;1.00
24224;DHT22;12359;49.716;9.212;2022-11-03T13:50:23;11.70;1.00
24224;DHT22;12359;49.716;9.212;2022-11-03T13:52:49;11.70;1.00
24224;DHT22;12359;49.716;9.212;2022-11-03T13:55:15;11.60;1.00
24224;DHT22;12359;49.716;9.212;2022-11-03T13:57:40;11.60;1.00
24224;DHT22;12359;49.716;9.212;2022-11-03T14:00:09;11.60;1.00
24224;DHT22;12359;49.716;9.212;2022-11-03T14:02:36;11.60;1.00
24224;DHT22;12359;49.716;9.212;2022-11-03T14:05:02;11.60;1.00
24224;DHT22;12359;49.716;9.212;2022-11-03T14:07:27;11.50;1.00
24224;DHT22;12359;49.716;9.212;2022-11-03T14:09:53;11.60;3.40
24224;DHT22;12359;49.716;9.212;2022-11-03T14:12:19;11.60;3.80
24224;DHT22;12359;49.716;9.212;2022-11-03T14:15:04;11.60;1.00
24224;DHT22;12359;49.716;9.212;2022-11-03T14:17:31;11.70;1.00
24224;DHT22;12359;49.716;9.212;2022-11-03T14:19:57;11.60;4.20
24224;DHT22;12359;49.716;9.212;2022-11-03T14:22:23;11.60;3.90
24224;DHT22;12359;49.716;9.212;2022-11-03T14:24:50;11.70;6.40
24224;DHT22;12359;49.716;9.212;2022-11-03T14:27:17;11.70;2.00
24224;DHT22;12359;49.716;9.212;2022-11-03T14:29:43;11.70;1.40
24224;DHT22;12359;49.716;9.212;2022-11-03T14:32:12;11.70;1.00
24224;DHT22;12359;49.716;9.212;2022-11-03T14:34:37;11.70;2.50
24224;DHT22;12359;49.716;9.212;2022-11-03T14:37:04;11.60;3.30
24224;DHT22;12359;49.716;9.212;2022-11-03T14:39:30;11.60;8.50
24224;DHT22;12359;49.716;9.212;2022-11-03T14:41:55;11.60;9.40
24224;DHT22;12359;49.716;9.212;2022-11-03T14:44:35;11.60;12.80
24224;DHT22;12359;49.716;9.212;2022-11-03T14:47:02;11.60;14.80
24224;DHT22;12359;49.716;9.212;2022-11-03T14:49:30;11.60;14.80
24224;DHT22;12359;49.716;9.212;2022-11-03T14:51:56;11.60;14.00
24224;DHT22;12359;49.716;9.212;2022-11-03T14:54:23;11.60;17.70
24224;DHT22;12359;49.716;9.212;2022-11-03T14:56:48;11.60;17.10
24224;DHT22;12359;49.716;9.212;2022-11-03T14:59:14;11.60;19.50
24224;DHT22;12359;49.716;9.212;2022-11-03T15:01:40;11.60;17.90
24224;DHT22;12359;49.716;9.212;2022-11-03T15:04:06;11.60;21.00
24224;DHT22;12359;49.716;9.212;2022-11-03T15:06:33;11.60;19.00
24224;DHT22;12359;49.716;9.212;2022-11-03T15:08:59;11.60;21.10
24224;DHT22;12359;49.716;9.212;2022-11-03T15:11:25;11.60;22.40
24224;DHT22;12359;49.716;9.212;2022-11-03T15:13:50;11.60;21.00
24224;DHT22;12359;49.716;9.212;2022-11-03T15:16:16;11.60;19.90
24224;DHT22;12359;49.716;9.212;2022-11-03T15:18:42;11.60;22.00
24224;DHT22;12359;49.716;9.212;2022-11-03T15:21:09;11.60;20.10
24224;DHT22;12359;49.716;9.212;2022-11-03T15:23:35;11.60;22.50
24224;DHT22;12359;49.716;9.212;2022-11-03T15:26:01;11.60;21.50
24224;DHT22;12359;49.716;9.212;2022-11-03T15:28:27;11.60;25.10
24224;DHT22;12359;49.716;9.212;2022-11-03T15:30:53;11.50;27.80
24224;DHT22;12359;49.716;9.212;2022-11-03T15:33:18;11.50;29.30
24224;DHT22;12359;49.716;9.212;2022-11-03T15:35:44;11.50;29.70
24224;DHT22;12359;49.716;9.212;2022-11-03T15:38:10;11.50;29.40
24224;DHT22;12359;49.716;9.212;2022-11-03T15:40:36;11.50;28.90
24224;DHT22;12359;49.716;9.212;2022-11-03T15:43:02;11.50;28.20
24224;DHT22;12359;49.716;9.212;2022-11-03T15:45:27;11.40;29.10
24224;DHT22;12359;49.716;9.212;2022-11-03T15:47:53;11.50;29.50
24224;DHT22;12359;49.716;9.212;2022-11-03T15:50:18;11.50;29.80
24224;DHT22;12359;49.716;9.212;2022-11-03T15:52:45;11.50;31.00
24224;DHT22;12359;49.716;9.212;2022-11-03T15:55:10;11.50;32.00
24224;DHT22;12359;49.716;9.212;2022-11-03T15:57:36;11.50;31.00
24224;DHT22;12359;49.716;9.212;2022-11-03T16:00:03;11.50;28.20
24224;DHT22;12359;49.716;9.212;2022-11-03T16:02:31;11.40;29.90
24224;DHT22;12359;49.716;9.212;2022-11-03T16:04:56;11.40;29.90
24224;DHT22;12359;49.716;9.212;2022-11-03T16:07:22;11.40;32.70
24224;DHT22;12359;49.716;9.212;2022-11-03T16:09:48;11.40;33.00
24224;DHT22;12359;49.716;9.212;2022-11-03T16:12:14;11.40;35.20
24224;DHT22;12359;49.716;9.212;2022-11-03T16:14:40;11.40;36.40
24224;DHT22;12359;49.716;9.212;2022-11-03T16:17:05;11.30;38.70
24224;DHT22;12359;49.716;9.212;2022-11-03T16:19:31;11.30;41.60
24224;DHT22;12359;49.716;9.212;2022-11-03T16:21:57;11.30;42.50
24224;DHT22;12359;49.716;9.212;2022-11-03T16:24:23;11.30;43.10
24224;DHT22;12359;49.716;9.212;2022-11-03T16:26:48;11.30;44.20
24224;DHT22;12359;49.716;9.212;2022-11-03T16:29:15;11.20;45.50
24224;DHT22;12359;49.716;9.212;2022-11-03T16:31:41;11.20;43.80
24224;DHT22;12359;49.716;9.212;2022-11-03T16:34:07;11.20;45.50
24224;DHT22;12359;49.716;9.212;2022-11-03T16:36:33;11.20;50.40
24224;DHT22;12359;49.716;9.212;2022-11-03T16:38:58;11.10;51.40
24224;DHT22;12359;49.716;9.212;2022-11-03T16:41:24;11.10;54.90
24224;DHT22;12359;49.716;9.212;2022-11-03T16:43:50;11.10;55.00
24224;DHT22;12359;49.716;9.212;2022-11-03T16:46:15;11.10;53.90
24224;DHT22;12359;49.716;9.212;2022-11-03T16:48:41;11.10;54.30
24224;DHT22;12359;49.716;9.212;2022-11-03T16:51:07;11.00;54.70
24224;DHT22;12359;49.716;9.212;2022-11-03T16:53:32;11.00;53.80
24224;DHT22;12359;49.716;9.212;2022-11-03T16:55:58;11.00;54.80